sensor_id;sensor_type;location;lat;lon;timestamp;P1;durP1;ratioP1;P2;durP2;ratioP2
5674;SDS011;2860;54.284;10.158;2023-07-31T00:02:01;2.33;;;1.50;;
5674;SDS011;2860;54.284;10.158;2023-07-31T00:04:27;7.85;;;2.13;;
5674;SDS011;2860;54.284;10.158;2023-07-31T00:06:52;3.38;;;2.00;;
5674;SDS011;2860;54.284;10.158;2023-07-31T00:09:18;2.75;;;2.28;;
5674;SDS011;2860;54.284;10.158;2023-07-31T00:11:43;7.32;;;1.90;;
5674;SDS011;2860;54.284;10.158;2023-07-31T00:14:09;8.07;;;1.90;;
5674;SDS011;2860;54.284;10.158;2023-07-31T00:16:34;4.25;;;1.80;;
5674;SDS011;2860;54.284;10.158;2023-07-31T00:19:00;6.30;;;2.25;;
5674;SDS011;2860;54.284;10.158;2023-07-31T00:21:25;2.22;;;2.05;;
5674;SDS011;2860;54.284;10.158;2023-07-31T00:23:51;5.18;;;2.10;;
5674;SDS011;2860;54.284;10.158;2023-07-31T00:26:16;2.72;;;2.10;;
5674;SDS011;2860;54.284;10.158;2023-07-31T00:28:42;2.38;;;1.58;;
5674;SDS011;2860;54.284;10.158;2023-07-31T00:31:07;4.43;;;2.10;;
5674;SDS011;2860;54.284;10.158;2023-07-31T00:33:34;4.25;;;2.05;;
5674;SDS011;2860;54.284;10.158;2023-07-31T00:36:00;2.55;;;2.35;;
5674;SDS011;2860;54.284;10.158;2023-07-31T00:38:26;11.88;;;2.92;;
5674;SDS011;2860;54.284;10.158;2023-07-31T00:40:51;7.13;;;2.42;;
5674;SDS011;2860;54.284;10.158;2023-07-31T00:43:17;4.05;;;2.60;;
5674;SDS011;2860;54.284;10.158;2023-07-31T00:45:42;5.07;;;2.15;;
5674;SDS011;2860;54.284;10.158;2023-07-31T00:48:08;4.85;;;1.90;;
5674;SDS011;2860;54.284;10.158;2023-07-31T00:50:33;2.15;;;1.95;;
5674;SDS011;2860;54.284;10.158;2023-07-31T00:53:00;9.38;;;2.00;;
5674;SDS011;2860;54.284;10.158;2023-07-31T00:55:25;2.28;;;2.08;;
5674;SDS011;2860;54.284;10.158;2023-07-31T00:57:51;3.05;;;2.03;;
5674;SDS011;2860;54.284;10.158;2023-07-31T01:00:17;4.00;;;1.70;;
5674;SDS011;2860;54.284;10.158;2023-07-31T01:02:43;7.00;;;1.48;;
5674;SDS011;2860;54.284;10.158;2023-07-31T01:05:09;3.40;;;1.50;;
5674;SDS011;2860;54.284;10.158;2023-07-31T01:07:38;3.33;;;1.83;;
5674;SDS011;2860;54.284;10.158;2023-07-31T01:10:26;2.25;;;1.40;;
5674;SDS011;2860;54.284;10.158;2023-07-31T01:12:59;2.47;;;1.40;;
5674;SDS011;2860;54.284;10.158;2023-07-31T01:15:26;1.23;;;1.20;;
5674;SDS011;2860;54.284;10.158;2023-07-31T01:17:52;2.15;;;1.40;;
5674;SDS011;2860;54.284;10.158;2023-07-31T01:20:18;18.08;;;1.67;;
5674;SDS011;2860;54.284;10.158;2023-07-31T01:25:53;3.25;;;1.95;;
5674;SDS011;2860;54.284;10.158;2023-07-31T01:31:23;2.97;;;1.30;;
5674;SDS011;2860;54.284;10.158;2023-07-31T01:33:50;1.30;;;1.30;;
5674;SDS011;2860;54.284;10.158;2023-07-31T01:36:18;3.58;;;1.48;;
5674;SDS011;2860;54.284;10.158;2023-07-31T01:38:44;1.27;;;1.27;;
5674;SDS011;2860;54.284;10.158;2023-07-31T01:41:09;1.58;;;1.20;;
5674;SDS011;2860;54.284;10.158;2023-07-31T01:43:35;4.18;;;0.90;;
5674;SDS011;2860;54.284;10.158;2023-07-31T01:46:00;3.53;;;1.27;;
5674;SDS011;2860;54.284;10.158;2023-07-31T01:48:26;1.70;;;0.77;;
5674;SDS011;2860;54.284;10.158;2023-07-31T01:50:51;2.72;;;1.10;;
5674;SDS011;2860;54.284;10.158;2023-07-31T01:53:17;0.80;;;0.80;;
5674;SDS011;2860;54.284;10.158;2023-07-31T01:55:42;1.70;;;1.40;;
5674;SDS011;2860;54.284;10.158;2023-07-31T01:58:08;1.55;;;1.15;;
5674;SDS011;2860;54.284;10.158;2023-07-31T02:00:34;2.58;;;1.15;;
5674;SDS011;2860;54.284;10.158;2023-07-31T02:02:59;5.80;;;1.23;;
5674;SDS011;2860;54.284;10.158;2023-07-31T02:05:25;1.42;;;1.33;;
5674;SDS011;2860;54.284;10.158;2023-07-31T02:07:50;6.63;;;1.40;;
5674;SDS011;2860;54.284;10.158;2023-07-31T02:10:16;6.22;;;2.72;;
5674;SDS011;2860;54.284;10.158;2023-07-31T02:12:42;1.00;;;1.00;;
5674;SDS011;2860;54.284;10.158;2023-07-31T02:15:07;9.90;;;1.13;;
5674;SDS011;2860;54.284;10.158;2023-07-31T02:17:33;1.92;;;0.98;;
5674;SDS011;2860;54.284;10.158;2023-07-31T02:19:59;5.03;;;1.17;;
5674;SDS011;2860;54.284;10.158;2023-07-31T02:22:24;3.00;;;1.02;;
5674;SDS011;2860;54.284;10.158;2023-07-31T02:24:50;1.15;;;1.13;;
5674;SDS011;2860;54.284;10.158;2023-07-31T02:27:15;4.30;;;1.60;;
5674;SDS011;2860;54.284;10.158;2023-07-31T02:29:41;1.88;;;1.48;;
5674;SDS011;2860;54.284;10.158;2023-07-31T02:32:06;1.55;;;1.15;;
5674;SDS011;2860;54.284;10.158;2023-07-31T02:34:32;4.22;;;1.83;;
5674;SDS011;2860;54.284;10.158;2023-07-31T02:36:57;8.10;;;1.33;;
5674;SDS011;2860;54.284;10.158;2023-07-31T02:39:23;2.22;;;2.13;;
5674;SDS011;2860;54.284;10.158;2023-07-31T02:41:48;3.20;;;1.48;;
5674;SDS011;2860;54.284;10.158;2023-07-31T02:44:14;1.30;;;1.30;;
5674;SDS011;2860;54.284;10.158;2023-07-31T02:46:40;4.18;;;2.28;;
5674;SDS011;2860;54.284;10.158;2023-07-31T02:49:05;2.38;;;2.20;;
5674;SDS011;2860;54.284;10.158;2023-07-31T02:51:31;2.25;;;2.13;;
5674;SDS011;2860;54.284;10.158;2023-07-31T02:53:56;3.80;;;2.15;;
5674;SDS011;2860;54.284;10.158;2023-07-31T02:56:22;2.28;;;2.17;;
5674;SDS011;2860;54.284;10.158;2023-07-31T02:58:47;8.57;;;3.88;;
5674;SDS011;2860;54.284;10.158;2023-07-31T03:01:13;2.90;;;2.63;;
5674;SDS011;2860;54.284;10.158;2023-07-31T03:03:41;2.47;;;2.05;;
5674;SDS011;2860;54.284;10.158;2023-07-31T03:06:07;7.65;;;2.97;;
5674;SDS011;2860;54.284;10.158;2023-07-31T03:08:32;3.38;;;2.60;;
5674;SDS011;2860;54.284;10.158;2023-07-31T03:10:58;2.47;;;2.22;;
5674;SDS011;2860;54.284;10.158;2023-07-31T03:13:23;2.35;;;2.25;;
5674;SDS011;2860;54.284;10.158;2023-07-31T03:15:49;8.27;;;2.55;;
5674;SDS011;2860;54.284;10.158;2023-07-31T03:18:15;2.13;;;2.03;;
5674;SDS011;2860;54.284;10.158;2023-07-31T03:20:43;3.00;;;2.80;;
5674;SDS011;2860;54.284;10.158;2023-07-31T03:23:09;6.15;;;2.58;;
5674;SDS011;2860;54.284;10.158;2023-07-31T03:25:35;5.20;;;3.22;;
5674;SDS011;2860;54.284;10.158;2023-07-31T03:28:00;3.95;;;2.58;;
5674;SDS011;2860;54.284;10.158;2023-07-31T03:30:26;4.05;;;2.92;;
5674;SDS011;2860;54.284;10.158;2023-07-31T03:32:51;6.10;;;3.95;;
5674;SDS011;2860;54.284;10.158;2023-07-31T03:35:17;3.72;;;3.25;;
5674;SDS011;2860;54.284;10.158;2023-07-31T03:37:42;9.05;;;3.67;;
5674;SDS011;2860;54.284;10.158;2023-07-31T03:40:08;4.57;;;3.80;;
5674;SDS011;2860;54.284;10.158;2023-07-31T03:42:34;5.30;;;4.25;;
5674;SDS011;2860;54.284;10.158;2023-07-31T03:45:00;14.98;;;5.22;;
5674;SDS011;2860;54.284;10.158;2023-07-31T03:47:25;5.07;;;4.68;;
5674;SDS011;2860;54.284;10.158;2023-07-31T03:49:51;8.85;;;6.30;;
5674;SDS011;2860;54.284;10.158;2023-07-31T03:52:17;10.18;;;5.38;;
5674;SDS011;2860;54.284;10.158;2023-07-31T03:54:42;9.13;;;5.43;;
5674;SDS011;2860;54.284;10.158;2023-07-31T03:57:09;7.55;;;6.07;;
5674;SDS011;2860;54.284;10.158;2023-07-31T03:59:35;8.82;;;5.63;;
5674;SDS011;2860;54.284;10.158;2023-07-31T04:02:03;12.07;;;7.15;;
5674;SDS011;2860;54.284;10.158;2023-07-31T04:04:29;9.55;;;7.07;;
5674;SDS011;2860;54.284;10.158;2023-07-31T04:06:54;11.20;;;6.72;;
5674;SDS011;2860;54.284;10.158;2023-07-31T04:09:20;6.72;;;6.00;;
5674;SDS011;2860;54.284;10.158;2023-07-31T04:11:45;15.50;;;6.15;;
5674;SDS011;2860;54.284;10.158;2023-07-31T04:14:11;11.45;;;5.95;;
5674;SDS011;2860;54.284;10.158;2023-07-31T04:16:36;7.85;;;6.60;;
5674;SDS011;2860;54.284;10.158;2023-07-31T04:19:02;9.95;;;6.35;;
5674;SDS011;2860;54.284;10.158;2023-07-31T04:21:28;7.25;;;5.97;;
5674;SDS011;2860;54.284;10.158;2023-07-31T04:23:54;7.00;;;5.97;;
5674;SDS011;2860;54.284;10.158;2023-07-31T04:26:21;9.95;;;6.75;;
5674;SDS011;2860;54.284;10.158;2023-07-31T04:28:46;7.47;;;6.85;;
5674;SDS011;2860;54.284;10.158;2023-07-31T04:31:12;13.25;;;6.63;;
5674;SDS011;2860;54.284;10.158;2023-07-31T04:33:37;6.15;;;5.78;;
5674;SDS011;2860;54.284;10.158;2023-07-31T04:36:03;13.75;;;6.82;;
5674;SDS011;2860;54.284;10.158;2023-07-31T04:38:29;6.75;;;6.25;;
5674;SDS011;2860;54.284;10.158;2023-07-31T04:40:55;9.98;;;6.28;;
5674;SDS011;2860;54.284;10.158;2023-07-31T04:43:20;10.45;;;6.55;;
5674;SDS011;2860;54.284;10.158;2023-07-31T04:45:51;12.95;;;7.00;;
5674;SDS011;2860;54.284;10.158;2023-07-31T04:48:23;8.77;;;7.00;;
5674;SDS011;2860;54.284;10.158;2023-07-31T04:50:49;9.10;;;7.13;;
5674;SDS011;2860;54.284;10.158;2023-07-31T04:53:14;13.05;;;7.80;;
5674;SDS011;2860;54.284;10.158;2023-07-31T04:55:40;13.38;;;6.88;;
5674;SDS011;2860;54.284;10.158;2023-07-31T04:58:05;10.88;;;7.18;;
5674;SDS011;2860;54.284;10.158;2023-07-31T05:00:31;7.85;;;7.10;;
5674;SDS011;2860;54.284;10.158;2023-07-31T05:02:56;8.27;;;7.00;;
5674;SDS011;2860;54.284;10.158;2023-07-31T05:05:22;12.43;;;6.80;;
5674;SDS011;2860;54.284;10.158;2023-07-31T05:07:47;10.82;;;7.65;;
5674;SDS011;2860;54.284;10.158;2023-07-31T05:10:13;12.93;;;7.05;;
5674;SDS011;2860;54.284;10.158;2023-07-31T05:12:38;8.82;;;7.60;;
5674;SDS011;2860;54.284;10.158;2023-07-31T05:15:04;13.70;;;8.40;;
5674;SDS011;2860;54.284;10.158;2023-07-31T05:17:30;14.43;;;8.23;;
5674;SDS011;2860;54.284;10.158;2023-07-31T05:19:56;11.43;;;9.20;;
5674;SDS011;2860;54.284;10.158;2023-07-31T05:22:21;11.05;;;8.80;;
5674;SDS011;2860;54.284;10.158;2023-07-31T05:24:47;11.10;;;8.80;;
5674;SDS011;2860;54.284;10.158;2023-07-31T05:27:12;12.30;;;9.25;;
5674;SDS011;2860;54.284;10.158;2023-07-31T05:29:40;9.13;;;8.25;;
5674;SDS011;2860;54.284;10.158;2023-07-31T05:32:05;14.48;;;8.32;;
5674;SDS011;2860;54.284;10.158;2023-07-31T05:34:31;8.23;;;7.53;;
5674;SDS011;2860;54.284;10.158;2023-07-31T05:36:57;7.45;;;6.78;;
5674;SDS011;2860;54.284;10.158;2023-07-31T05:39:22;8.60;;;7.50;;
5674;SDS011;2860;54.284;10.158;2023-07-31T05:41:48;8.30;;;7.32;;
5674;SDS011;2860;54.284;10.158;2023-07-31T05:44:13;8.90;;;7.78;;
5674;SDS011;2860;54.284;10.158;2023-07-31T05:46:39;10.95;;;7.55;;
5674;SDS011;2860;54.284;10.158;2023-07-31T05:49:04;9.38;;;7.50;;
5674;SDS011;2860;54.284;10.158;2023-07-31T05:51:30;8.13;;;7.57;;
5674;SDS011;2860;54.284;10.158;2023-07-31T05:53:55;10.23;;;7.68;;
5674;SDS011;2860;54.284;10.158;2023-07-31T05:56:21;9.02;;;8.07;;
5674;SDS011;2860;54.284;10.158;2023-07-31T05:58:46;13.82;;;8.23;;
5674;SDS011;2860;54.284;10.158;2023-07-31T06:01:13;14.15;;;8.27;;
5674;SDS011;2860;54.284;10.158;2023-07-31T06:03:40;10.95;;;8.88;;
5674;SDS011;2860;54.284;10.158;2023-07-31T06:06:06;7.45;;;6.70;;
5674;SDS011;2860;54.284;10.158;2023-07-31T06:08:31;7.47;;;6.88;;
5674;SDS011;2860;54.284;10.158;2023-07-31T06:10:57;10.52;;;7.50;;
5674;SDS011;2860;54.284;10.158;2023-07-31T06:13:22;11.65;;;6.97;;
5674;SDS011;2860;54.284;10.158;2023-07-31T06:15:48;9.85;;;5.57;;
5674;SDS011;2860;54.284;10.158;2023-07-31T06:18:13;6.70;;;6.25;;
5674;SDS011;2860;54.284;10.158;2023-07-31T06:20:39;6.72;;;6.18;;
5674;SDS011;2860;54.284;10.158;2023-07-31T06:23:05;9.30;;;6.00;;
5674;SDS011;2860;54.284;10.158;2023-07-31T06:25:31;7.28;;;6.25;;
5674;SDS011;2860;54.284;10.158;2023-07-31T06:27:56;6.22;;;5.82;;
5674;SDS011;2860;54.284;10.158;2023-07-31T06:30:22;6.50;;;5.90;;
5674;SDS011;2860;54.284;10.158;2023-07-31T06:32:47;7.40;;;5.60;;
5674;SDS011;2860;54.284;10.158;2023-07-31T06:35:13;6.32;;;5.68;;
5674;SDS011;2860;54.284;10.158;2023-07-31T06:37:38;6.07;;;5.60;;
5674;SDS011;2860;54.284;10.158;2023-07-31T06:40:05;6.18;;;5.30;;
5674;SDS011;2860;54.284;10.158;2023-07-31T06:42:33;6.00;;;5.60;;
5674;SDS011;2860;54.284;10.158;2023-07-31T06:44:59;7.68;;;4.63;;
5674;SDS011;2860;54.284;10.158;2023-07-31T06:47:25;5.90;;;5.53;;
5674;SDS011;2860;54.284;10.158;2023-07-31T06:49:51;4.90;;;4.70;;
5674;SDS011;2860;54.284;10.158;2023-07-31T06:52:16;5.85;;;5.60;;
5674;SDS011;2860;54.284;10.158;2023-07-31T06:54:42;5.45;;;4.97;;
5674;SDS011;2860;54.284;10.158;2023-07-31T06:57:07;4.90;;;4.70;;
5674;SDS011;2860;54.284;10.158;2023-07-31T06:59:33;4.63;;;4.35;;
5674;SDS011;2860;54.284;10.158;2023-07-31T07:01:58;5.40;;;4.63;;
5674;SDS011;2860;54.284;10.158;2023-07-31T07:04:24;5.85;;;3.72;;
5674;SDS011;2860;54.284;10.158;2023-07-31T07:06:49;3.55;;;3.35;;
5674;SDS011;2860;54.284;10.158;2023-07-31T07:09:15;4.03;;;3.75;;
5674;SDS011;2860;54.284;10.158;2023-07-31T07:11:40;4.10;;;4.00;;
5674;SDS011;2860;54.284;10.158;2023-07-31T07:14:06;3.40;;;3.15;;
5674;SDS011;2860;54.284;10.158;2023-07-31T07:16:31;2.63;;;2.53;;
5674;SDS011;2860;54.284;10.158;2023-07-31T07:18:57;4.00;;;2.60;;
5674;SDS011;2860;54.284;10.158;2023-07-31T07:21:22;2.72;;;2.53;;
5674;SDS011;2860;54.284;10.158;2023-07-31T07:23:48;4.93;;;1.83;;
5674;SDS011;2860;54.284;10.158;2023-07-31T07:26:13;1.88;;;1.83;;
5674;SDS011;2860;54.284;10.158;2023-07-31T07:28:39;1.38;;;1.38;;
5674;SDS011;2860;54.284;10.158;2023-07-31T07:31:04;1.50;;;1.50;;
5674;SDS011;2860;54.284;10.158;2023-07-31T07:33:30;1.50;;;1.50;;
5674;SDS011;2860;54.284;10.158;2023-07-31T07:35:59;1.80;;;1.45;;
5674;SDS011;2860;54.284;10.158;2023-07-31T07:38:25;1.60;;;1.05;;
5674;SDS011;2860;54.284;10.158;2023-07-31T07:40:51;0.85;;;0.85;;
5674;SDS011;2860;54.284;10.158;2023-07-31T07:43:18;1.05;;;1.00;;
5674;SDS011;2860;54.284;10.158;2023-07-31T07:45:59;1.15;;;0.90;;
5674;SDS011;2860;54.284;10.158;2023-07-31T07:48:24;0.85;;;0.77;;
5674;SDS011;2860;54.284;10.158;2023-07-31T07:50:50;0.98;;;0.80;;
5674;SDS011;2860;54.284;10.158;2023-07-31T07:53:16;0.95;;;0.95;;
5674;SDS011;2860;54.284;10.158;2023-07-31T07:55:41;0.80;;;0.80;;
5674;SDS011;2860;54.284;10.158;2023-07-31T07:58:07;1.75;;;0.90;;
5674;SDS011;2860;54.284;10.158;2023-07-31T08:00:33;1.25;;;1.15;;
5674;SDS011;2860;54.284;10.158;2023-07-31T08:02:58;0.70;;;0.70;;
5674;SDS011;2860;54.284;10.158;2023-07-31T08:05:24;1.10;;;1.10;;
5674;SDS011;2860;54.284;10.158;2023-07-31T08:07:50;0.68;;;0.68;;
5674;SDS011;2860;54.284;10.158;2023-07-31T08:10:15;0.80;;;0.80;;
5674;SDS011;2860;54.284;10.158;2023-07-31T08:12:41;0.60;;;0.60;;
5674;SDS011;2860;54.284;10.158;2023-07-31T08:15:06;0.90;;;0.90;;
5674;SDS011;2860;54.284;10.158;2023-07-31T08:17:32;0.77;;;0.77;;
5674;SDS011;2860;54.284;10.158;2023-07-31T08:19:58;3.50;;;0.80;;
5674;SDS011;2860;54.284;10.158;2023-07-31T08:22:23;0.70;;;0.70;;
5674;SDS011;2860;54.284;10.158;2023-07-31T08:24:50;0.90;;;0.90;;
5674;SDS011;2860;54.284;10.158;2023-07-31T08:27:15;2.75;;;0.65;;
5674;SDS011;2860;54.284;10.158;2023-07-31T08:29:40;1.45;;;0.98;;
5674;SDS011;2860;54.284;10.158;2023-07-31T08:32:06;6.22;;;0.90;;
5674;SDS011;2860;54.284;10.158;2023-07-31T08:34:32;1.00;;;1.00;;
5674;SDS011;2860;54.284;10.158;2023-07-31T08:36:57;1.08;;;1.08;;
5674;SDS011;2860;54.284;10.158;2023-07-31T08:39:23;0.98;;;0.98;;
5674;SDS011;2860;54.284;10.158;2023-07-31T08:41:48;0.68;;;0.68;;
5674;SDS011;2860;54.284;10.158;2023-07-31T08:44:14;1.23;;;0.80;;
5674;SDS011;2860;54.284;10.158;2023-07-31T08:46:41;0.98;;;0.98;;
5674;SDS011;2860;54.284;10.158;2023-07-31T08:49:07;1.05;;;1.05;;
5674;SDS011;2860;54.284;10.158;2023-07-31T08:51:34;0.80;;;0.80;;
5674;SDS011;2860;54.284;10.158;2023-07-31T08:54:01;0.90;;;0.90;;
5674;SDS011;2860;54.284;10.158;2023-07-31T08:56:28;2.22;;;1.05;;
5674;SDS011;2860;54.284;10.158;2023-07-31T08:58:55;3.20;;;0.73;;
5674;SDS011;2860;54.284;10.158;2023-07-31T09:01:22;0.60;;;0.60;;
5674;SDS011;2860;54.284;10.158;2023-07-31T09:03:49;0.70;;;0.70;;
5674;SDS011;2860;54.284;10.158;2023-07-31T09:06:17;0.73;;;0.73;;
5674;SDS011;2860;54.284;10.158;2023-07-31T09:08:45;1.38;;;0.98;;
5674;SDS011;2860;54.284;10.158;2023-07-31T09:11:11;0.77;;;0.77;;
5674;SDS011;2860;54.284;10.158;2023-07-31T09:13:37;0.70;;;0.70;;
5674;SDS011;2860;54.284;10.158;2023-07-31T09:16:05;0.68;;;0.50;;
5674;SDS011;2860;54.284;10.158;2023-07-31T09:18:30;2.05;;;0.88;;
5674;SDS011;2860;54.284;10.158;2023-07-31T09:23:46;1.50;;;1.40;;
5674;SDS011;2860;54.284;10.158;2023-07-31T09:26:33;0.82;;;0.82;;
5674;SDS011;2860;54.284;10.158;2023-07-31T09:29:00;1.33;;;1.17;;
5674;SDS011;2860;54.284;10.158;2023-07-31T09:31:38;0.85;;;0.85;;
5674;SDS011;2860;54.284;10.158;2023-07-31T09:34:06;1.30;;;1.30;;
5674;SDS011;2860;54.284;10.158;2023-07-31T09:36:31;2.17;;;2.03;;
5674;SDS011;2860;54.284;10.158;2023-07-31T09:39:03;3.58;;;1.23;;
5674;SDS011;2860;54.284;10.158;2023-07-31T09:41:29;1.48;;;1.30;;
5674;SDS011;2860;54.284;10.158;2023-07-31T09:43:55;1.92;;;1.83;;
5674;SDS011;2860;54.284;10.158;2023-07-31T09:46:21;2.13;;;2.03;;
5674;SDS011;2860;54.284;10.158;2023-07-31T09:48:47;2.83;;;2.10;;
5674;SDS011;2860;54.284;10.158;2023-07-31T09:51:12;1.88;;;1.77;;
5674;SDS011;2860;54.284;10.158;2023-07-31T09:53:38;1.00;;;1.00;;
5674;SDS011;2860;54.284;10.158;2023-07-31T09:56:04;1.20;;;1.20;;
5674;SDS011;2860;54.284;10.158;2023-07-31T09:58:30;1.25;;;1.25;;
5674;SDS011;2860;54.284;10.158;2023-07-31T10:00:59;1.05;;;1.05;;
5674;SDS011;2860;54.284;10.158;2023-07-31T10:03:27;1.20;;;1.20;;
5674;SDS011;2860;54.284;10.158;2023-07-31T10:05:55;3.95;;;1.35;;
5674;SDS011;2860;54.284;10.158;2023-07-31T10:08:21;2.05;;;1.35;;
5674;SDS011;2860;54.284;10.158;2023-07-31T10:10:57;1.27;;;1.27;;
5674;SDS011;2860;54.284;10.158;2023-07-31T10:13:24;12.40;;;3.42;;
5674;SDS011;2860;54.284;10.158;2023-07-31T10:15:52;1.45;;;1.45;;
5674;SDS011;2860;54.284;10.158;2023-07-31T10:18:19;1.67;;;1.42;;
5674;SDS011;2860;54.284;10.158;2023-07-31T10:20:45;2.75;;;2.05;;
5674;SDS011;2860;54.284;10.158;2023-07-31T10:23:12;2.25;;;1.80;;
5674;SDS011;2860;54.284;10.158;2023-07-31T10:25:38;1.85;;;1.85;;
5674;SDS011;2860;54.284;10.158;2023-07-31T10:28:04;4.68;;;2.00;;
5674;SDS011;2860;54.284;10.158;2023-07-31T10:30:30;2.70;;;2.60;;
5674;SDS011;2860;54.284;10.158;2023-07-31T10:32:58;4.78;;;2.20;;
5674;SDS011;2860;54.284;10.158;2023-07-31T10:35:24;2.72;;;2.10;;
5674;SDS011;2860;54.284;10.158;2023-07-31T10:37:49;2.63;;;2.53;;
5674;SDS011;2860;54.284;10.158;2023-07-31T10:40:18;2.47;;;2.25;;
5674;SDS011;2860;54.284;10.158;2023-07-31T10:42:52;2.10;;;2.10;;
5674;SDS011;2860;54.284;10.158;2023-07-31T10:48:07;1.73;;;1.73;;
5674;SDS011;2860;54.284;10.158;2023-07-31T10:50:38;2.40;;;2.25;;
5674;SDS011;2860;54.284;10.158;2023-07-31T10:53:22;3.17;;;1.50;;
5674;SDS011;2860;54.284;10.158;2023-07-31T10:55:49;1.70;;;1.67;;
5674;SDS011;2860;54.284;10.158;2023-07-31T10:58:18;2.67;;;2.45;;
5674;SDS011;2860;54.284;10.158;2023-07-31T11:00:46;3.22;;;3.03;;
5674;SDS011;2860;54.284;10.158;2023-07-31T11:03:15;3.00;;;2.75;;
5674;SDS011;2860;54.284;10.158;2023-07-31T11:08:20;1.88;;;1.88;;
5674;SDS011;2860;54.284;10.158;2023-07-31T11:10:47;3.78;;;1.88;;
5674;SDS011;2860;54.284;10.158;2023-07-31T11:13:14;2.20;;;2.10;;
5674;SDS011;2860;54.284;10.158;2023-07-31T11:15:40;1.55;;;1.55;;
5674;SDS011;2860;54.284;10.158;2023-07-31T11:18:05;2.00;;;1.92;;
5674;SDS011;2860;54.284;10.158;2023-07-31T11:20:33;3.00;;;1.60;;
5674;SDS011;2860;54.284;10.158;2023-07-31T11:23:03;5.25;;;1.80;;
5674;SDS011;2860;54.284;10.158;2023-07-31T11:25:31;3.15;;;1.83;;
5674;SDS011;2860;54.284;10.158;2023-07-31T11:28:06;1.38;;;1.38;;
5674;SDS011;2860;54.284;10.158;2023-07-31T11:30:33;1.52;;;1.42;;
5674;SDS011;2860;54.284;10.158;2023-07-31T11:33:00;2.17;;;1.63;;
5674;SDS011;2860;54.284;10.158;2023-07-31T11:35:28;1.73;;;1.63;;
5674;SDS011;2860;54.284;10.158;2023-07-31T11:37:57;2.53;;;1.55;;
5674;SDS011;2860;54.284;10.158;2023-07-31T11:40:22;3.72;;;1.70;;
5674;SDS011;2860;54.284;10.158;2023-07-31T11:42:53;1.80;;;1.80;;
5674;SDS011;2860;54.284;10.158;2023-07-31T11:45:19;1.58;;;1.42;;
5674;SDS011;2860;54.284;10.158;2023-07-31T11:47:45;1.80;;;1.77;;
5674;SDS011;2860;54.284;10.158;2023-07-31T11:50:10;1.70;;;1.70;;
5674;SDS011;2860;54.284;10.158;2023-07-31T11:52:38;6.03;;;1.88;;
5674;SDS011;2860;54.284;10.158;2023-07-31T11:55:08;2.05;;;1.77;;
5674;SDS011;2860;54.284;10.158;2023-07-31T11:57:37;2.47;;;2.28;;
5674;SDS011;2860;54.284;10.158;2023-07-31T12:00:05;2.70;;;1.80;;
5674;SDS011;2860;54.284;10.158;2023-07-31T12:02:33;1.60;;;1.60;;
5674;SDS011;2860;54.284;10.158;2023-07-31T12:04:59;2.88;;;1.52;;
5674;SDS011;2860;54.284;10.158;2023-07-31T12:07:25;1.60;;;1.35;;
5674;SDS011;2860;54.284;10.158;2023-07-31T12:09:54;1.63;;;1.52;;
5674;SDS011;2860;54.284;10.158;2023-07-31T12:12:20;3.40;;;1.23;;
5674;SDS011;2860;54.284;10.158;2023-07-31T12:14:51;1.95;;;1.23;;
5674;SDS011;2860;54.284;10.158;2023-07-31T12:17:17;1.75;;;1.35;;
5674;SDS011;2860;54.284;10.158;2023-07-31T12:19:45;7.63;;;1.73;;
5674;SDS011;2860;54.284;10.158;2023-07-31T12:22:14;8.65;;;1.92;;
5674;SDS011;2860;54.284;10.158;2023-07-31T12:24:41;1.50;;;1.40;;
5674;SDS011;2860;54.284;10.158;2023-07-31T12:27:12;1.95;;;1.80;;
5674;SDS011;2860;54.284;10.158;2023-07-31T12:29:40;5.85;;;1.60;;
5674;SDS011;2860;54.284;10.158;2023-07-31T12:32:23;1.92;;;1.83;;
5674;SDS011;2860;54.284;10.158;2023-07-31T12:34:50;11.15;;;2.70;;
5674;SDS011;2860;54.284;10.158;2023-07-31T12:37:16;1.90;;;1.80;;
5674;SDS011;2860;54.284;10.158;2023-07-31T12:39:41;1.50;;;1.45;;
5674;SDS011;2860;54.284;10.158;2023-07-31T12:42:07;1.23;;;1.13;;
5674;SDS011;2860;54.284;10.158;2023-07-31T12:44:33;1.95;;;1.65;;
5674;SDS011;2860;54.284;10.158;2023-07-31T12:46:58;2.10;;;1.45;;
5674;SDS011;2860;54.284;10.158;2023-07-31T12:49:24;3.60;;;1.40;;
5674;SDS011;2860;54.284;10.158;2023-07-31T12:51:49;0.80;;;0.80;;
5674;SDS011;2860;54.284;10.158;2023-07-31T12:54:15;2.67;;;0.80;;
5674;SDS011;2860;54.284;10.158;2023-07-31T12:56:40;4.03;;;0.90;;
5674;SDS011;2860;54.284;10.158;2023-07-31T12:59:06;1.02;;;1.00;;
5674;SDS011;2860;54.284;10.158;2023-07-31T13:01:31;5.55;;;1.02;;
5674;SDS011;2860;54.284;10.158;2023-07-31T13:03:57;4.45;;;1.33;;
5674;SDS011;2860;54.284;10.158;2023-07-31T13:06:23;1.85;;;0.88;;
5674;SDS011;2860;54.284;10.158;2023-07-31T13:08:49;2.33;;;1.25;;
5674;SDS011;2860;54.284;10.158;2023-07-31T13:11:15;0.90;;;0.90;;
5674;SDS011;2860;54.284;10.158;2023-07-31T13:13:40;4.00;;;0.80;;
5674;SDS011;2860;54.284;10.158;2023-07-31T13:16:06;2.35;;;0.80;;
5674;SDS011;2860;54.284;10.158;2023-07-31T13:18:31;1.23;;;1.10;;
5674;SDS011;2860;54.284;10.158;2023-07-31T13:20:57;3.25;;;0.73;;
5674;SDS011;2860;54.284;10.158;2023-07-31T13:23:22;1.80;;;1.10;;
5674;SDS011;2860;54.284;10.158;2023-07-31T13:25:48;1.17;;;0.80;;
5674;SDS011;2860;54.284;10.158;2023-07-31T13:28:13;1.77;;;1.23;;
5674;SDS011;2860;54.284;10.158;2023-07-31T13:30:39;0.88;;;0.88;;
5674;SDS011;2860;54.284;10.158;2023-07-31T13:33:05;1.63;;;0.50;;
5674;SDS011;2860;54.284;10.158;2023-07-31T13:35:30;0.70;;;0.70;;
5674;SDS011;2860;54.284;10.158;2023-07-31T13:37:56;0.60;;;0.60;;
5674;SDS011;2860;54.284;10.158;2023-07-31T13:40:22;0.52;;;0.52;;
5674;SDS011;2860;54.284;10.158;2023-07-31T13:42:48;0.95;;;0.60;;
5674;SDS011;2860;54.284;10.158;2023-07-31T13:45:13;1.00;;;0.60;;
5674;SDS011;2860;54.284;10.158;2023-07-31T13:47:39;1.45;;;1.13;;
5674;SDS011;2860;54.284;10.158;2023-07-31T13:50:05;3.50;;;0.50;;
5674;SDS011;2860;54.284;10.158;2023-07-31T13:52:30;0.55;;;0.55;;
5674;SDS011;2860;54.284;10.158;2023-07-31T13:54:56;0.77;;;0.60;;
5674;SDS011;2860;54.284;10.158;2023-07-31T13:57:22;1.10;;;0.50;;
5674;SDS011;2860;54.284;10.158;2023-07-31T13:59:48;1.65;;;0.50;;
5674;SDS011;2860;54.284;10.158;2023-07-31T14:02:13;1.55;;;0.70;;
5674;SDS011;2860;54.284;10.158;2023-07-31T14:04:40;2.55;;;0.50;;
5674;SDS011;2860;54.284;10.158;2023-07-31T14:07:05;10.20;;;0.70;;
5674;SDS011;2860;54.284;10.158;2023-07-31T14:09:31;1.02;;;1.00;;
5674;SDS011;2860;54.284;10.158;2023-07-31T14:11:59;0.50;;;0.50;;
5674;SDS011;2860;54.284;10.158;2023-07-31T14:14:24;3.25;;;0.98;;
5674;SDS011;2860;54.284;10.158;2023-07-31T14:16:50;1.45;;;0.40;;
5674;SDS011;2860;54.284;10.158;2023-07-31T14:19:15;4.93;;;0.70;;
5674;SDS011;2860;54.284;10.158;2023-07-31T14:21:41;1.67;;;0.43;;
5674;SDS011;2860;54.284;10.158;2023-07-31T14:24:07;2.90;;;0.50;;
5674;SDS011;2860;54.284;10.158;2023-07-31T14:26:32;0.98;;;0.68;;
5674;SDS011;2860;54.284;10.158;2023-07-31T14:28:58;2.30;;;0.52;;
5674;SDS011;2860;54.284;10.158;2023-07-31T14:31:23;0.50;;;0.50;;
5674;SDS011;2860;54.284;10.158;2023-07-31T14:33:49;4.38;;;0.57;;
5674;SDS011;2860;54.284;10.158;2023-07-31T14:36:14;0.60;;;0.60;;
5674;SDS011;2860;54.284;10.158;2023-07-31T14:38:40;1.45;;;0.57;;
5674;SDS011;2860;54.284;10.158;2023-07-31T14:41:05;0.40;;;0.40;;
5674;SDS011;2860;54.284;10.158;2023-07-31T14:43:30;2.03;;;0.50;;
5674;SDS011;2860;54.284;10.158;2023-07-31T14:45:56;1.63;;;0.40;;
5674;SDS011;2860;54.284;10.158;2023-07-31T14:48:24;0.40;;;0.40;;
5674;SDS011;2860;54.284;10.158;2023-07-31T14:50:50;1.27;;;0.50;;
5674;SDS011;2860;54.284;10.158;2023-07-31T14:53:16;1.17;;;0.50;;
5674;SDS011;2860;54.284;10.158;2023-07-31T14:55:41;0.65;;;0.60;;
5674;SDS011;2860;54.284;10.158;2023-07-31T14:58:07;1.60;;;0.50;;
5674;SDS011;2860;54.284;10.158;2023-07-31T15:00:32;0.60;;;0.60;;
5674;SDS011;2860;54.284;10.158;2023-07-31T15:02:58;2.47;;;0.50;;
5674;SDS011;2860;54.284;10.158;2023-07-31T15:05:23;0.60;;;0.60;;
5674;SDS011;2860;54.284;10.158;2023-07-31T15:07:49;0.65;;;0.40;;
5674;SDS011;2860;54.284;10.158;2023-07-31T15:10:14;1.67;;;0.38;;